createdAt,value
2022-07-29T00:00:18.572Z,49.64
2022-07-29T00:01:20.065Z,51.22
2022-07-29T00:02:22.072Z,49.63
2022-07-29T00:03:23.732Z,50.46
2022-07-29T00:04:25.372Z,49.93
2022-07-29T00:05:27.019Z,49.72
2022-07-29T00:06:28.837Z,50.04
2022-07-29T00:07:30.469Z,50.97
2022-07-29T00:08:32.343Z,51.54
2022-07-29T00:09:50.445Z,52.4
2022-07-29T00:10:35.942Z,52.39
2022-07-29T00:11:37.677Z,52.25
2022-07-29T00:12:39.420Z,51.86
2022-07-29T00:13:41.069Z,51.83
2022-07-29T00:14:42.823Z,51.94
2022-07-29T00:15:44.566Z,52.02
2022-07-29T00:16:46.370Z,52.71
2022-07-29T00:17:47.975Z,52.95
2022-07-29T00:18:49.653Z,52.15
2022-07-29T00:19:51.583Z,51.93
2022-07-29T00:20:53.322Z,52.3
2022-07-29T00:21:55.011Z,53.58
2022-07-29T00:22:56.724Z,53.23
2022-07-29T00:23:58.605Z,52.96
2022-07-29T00:25:00.161Z,53.17
2022-07-29T00:26:02.035Z,53.08
2022-07-29T00:27:03.629Z,53.16
2022-07-29T00:28:05.415Z,52.94
2022-07-29T00:29:33.101Z,52.6
2022-07-29T00:30:08.967Z,52.37
2022-07-29T00:31:17.901Z,51.75
2022-07-29T00:32:12.233Z,51.63
2022-07-29T00:33:14.046Z,51.96
2022-07-29T00:34:16.019Z,52.36
2022-07-29T00:35:17.678Z,53.2
2022-07-29T00:36:19.310Z,53.16
2022-07-29T00:37:20.901Z,53.68
2022-07-29T00:38:22.785Z,53.7
2022-07-29T00:39:24.448Z,54.12
2022-07-29T00:40:26.035Z,54.06
2022-07-29T00:41:27.924Z,54.39
2022-07-29T00:42:29.638Z,54.96
2022-07-29T00:43:31.307Z,55.38
2022-07-29T00:44:33.054Z,56.47
2022-07-29T00:45:34.772Z,56.88
2022-07-29T00:46:36.605Z,57.43
2022-07-29T00:47:38.327Z,58.79
2022-07-29T00:48:39.956Z,59.01
2022-07-29T00:49:41.784Z,55.81
2022-07-29T00:50:43.413Z,56.55
2022-07-29T00:51:45.124Z,56.75
2022-07-29T00:52:46.698Z,58.65
2022-07-29T00:53:48.797Z,58.52
2022-07-29T00:54:50.342Z,60.32
2022-07-29T00:55:52.376Z,60.33
2022-07-29T00:56:53.838Z,61.88
2022-07-29T00:57:55.580Z,63.11
2022-07-29T00:58:57.311Z,62.73
2022-07-29T00:59:59.115Z,63.67
2022-07-29T01:01:00.768Z,64.49
2022-07-29T01:02:02.898Z,66.86
2022-07-29T01:03:04.607Z,66.77
2022-07-29T01:04:06.044Z,68.59
2022-07-29T01:05:07.836Z,68.06
2022-07-29T01:06:19.574Z,66.99
2022-07-29T01:07:11.305Z,68.16
2022-07-29T01:08:12.964Z,70.03
2022-07-29T01:09:14.545Z,72.6
2022-07-29T01:10:16.400Z,72.81
2022-07-29T01:11:18.171Z,74.46
2022-07-29T01:12:19.986Z,75.6
2022-07-29T01:13:21.428Z,78.06
2022-07-29T01:14:23.309Z,80.2
2022-07-29T01:15:24.964Z,81.65
2022-07-29T01:16:26.862Z,83.06
2022-07-29T01:17:28.493Z,85.53
2022-07-29T01:18:30.401Z,87.01
2022-07-29T01:19:31.971Z,86.11
2022-07-29T01:20:33.860Z,89.13
2022-07-29T01:21:35.501Z,88.32
2022-07-29T01:22:37.381Z,86.98
2022-07-29T01:23:39.324Z,89.61
2022-07-29T01:24:40.809Z,90.19
2022-07-29T01:25:42.530Z,90.54
2022-07-29T01:26:44.218Z,89.34
2022-07-29T01:27:45.965Z,88.72
2022-07-29T01:28:47.685Z,89.34
2022-07-29T01:29:49.437Z,89.74
2022-07-29T01:30:51.070Z,92.84
2022-07-29T01:31:59.225Z,93.07
2022-07-29T01:32:54.660Z,95.06
2022-07-29T01:33:56.178Z,97.81
2022-07-29T01:34:57.847Z,100
2022-07-29T01:35:59.829Z,100
2022-07-29T01:37:01.573Z,100
2022-07-29T01:38:03.261Z,100
2022-07-29T01:39:04.957Z,100
2022-07-29T01:40:06.738Z,100
2022-07-29T01:41:08.466Z,100
2022-07-29T01:42:10.337Z,100
2022-07-29T01:43:11.887Z,100
2022-07-29T01:44:14.072Z,100
2022-07-29T01:45:15.351Z,100
2022-07-29T01:46:17.114Z,100
2022-07-29T01:47:18.778Z,100
2022-07-29T01:48:20.493Z,100
2022-07-29T01:49:22.475Z,100
2022-07-29T01:50:24.037Z,100
2022-07-29T01:51:25.810Z,100
2022-07-29T01:52:27.584Z,100
2022-07-29T01:53:29.341Z,100
2022-07-29T01:54:30.963Z,100
2022-07-29T01:55:32.701Z,100
2022-07-29T01:56:35.715Z,100
2022-07-29T01:57:36.241Z,100
2022-07-29T01:58:37.964Z,100
2022-07-29T01:59:39.698Z,100
2022-07-29T02:00:43.893Z,100
2022-07-29T02:01:43.664Z,100
2022-07-29T02:02:44.967Z,100
2022-07-29T02:03:46.929Z,100
2022-07-29T02:04:48.769Z,100
2022-07-29T02:05:50.584Z,100
2022-07-29T02:06:52.065Z,100
2022-07-29T02:07:53.762Z,100
2022-07-29T02:08:55.677Z,100
2022-07-29T02:09:56.953Z,100
2022-07-29T02:10:59.468Z,100
2022-07-29T02:12:00.994Z,100
2022-07-29T02:13:02.208Z,100
2022-07-29T02:14:03.946Z,100
2022-07-29T02:15:05.501Z,100
2022-07-29T02:16:07.486Z,100
2022-07-29T02:17:09.075Z,100
2022-07-29T02:18:10.916Z,100
2022-07-29T02:19:12.438Z,100
2022-07-29T02:20:14.293Z,100
2022-07-29T02:21:15.976Z,100
2022-07-29T02:22:17.633Z,100
2022-07-29T02:23:19.700Z,100
2022-07-29T02:24:21.160Z,100
2022-07-29T02:25:23.020Z,100
2022-07-29T02:26:24.765Z,100
2022-07-29T02:27:26.424Z,100
2022-07-29T02:28:28.247Z,100
2022-07-29T02:29:29.973Z,100
2022-07-29T02:30:32.166Z,100
2022-07-29T02:31:33.717Z,100
2022-07-29T02:32:35.598Z,100
2022-07-29T02:33:37.211Z,100
2022-07-29T02:34:38.664Z,100
2022-07-29T02:35:40.674Z,100
2022-07-29T02:36:42.569Z,100
2022-07-29T02:37:44.354Z,100
2022-07-29T02:38:45.967Z,100
2022-07-29T02:39:47.290Z,100
2022-07-29T02:40:50.071Z,100
2022-07-29T02:41:51.178Z,100
2022-07-29T02:42:52.705Z,100
2022-07-29T02:43:54.261Z,100
2022-07-29T02:44:55.958Z,100
2022-07-29T02:45:57.775Z,100
2022-07-29T02:47:00.225Z,100
2022-07-29T02:48:01.287Z,100
2022-07-29T02:49:03.282Z,100
2022-07-29T02:50:04.886Z,100
2022-07-29T02:51:06.706Z,100
2022-07-29T02:52:08.186Z,100
2022-07-29T02:53:10.559Z,100
2022-07-29T02:54:11.921Z,100
2022-07-29T02:55:13.691Z,100
2022-07-29T02:56:14.901Z,100
2022-07-29T02:57:16.686Z,100
2022-07-29T02:58:18.531Z,100
2022-07-29T02:59:20.316Z,100
2022-07-29T03:00:21.840Z,100
2022-07-29T03:01:23.649Z,100
2022-07-29T03:02:25.363Z,100
2022-07-29T03:03:27.169Z,100
2022-07-29T03:04:28.949Z,100
2022-07-29T03:05:30.586Z,100
2022-07-29T03:06:38.452Z,100
2022-07-29T03:07:34.150Z,100
2022-07-29T03:08:35.889Z,100
2022-07-29T03:09:37.663Z,100
2022-07-29T03:10:39.482Z,100
2022-07-29T03:11:46.032Z,100
2022-07-29T03:12:42.805Z,100
2022-07-29T03:13:44.552Z,100
2022-07-29T03:14:46.269Z,100
2022-07-29T03:15:48.045Z,100
2022-07-29T03:16:49.948Z,100
2022-07-29T03:17:51.406Z,100
2022-07-29T03:18:53.191Z,100
2022-07-29T03:19:54.882Z,100
2022-07-29T03:20:56.677Z,100
2022-07-29T03:21:58.430Z,100
2022-07-29T03:23:00.122Z,100
2022-07-29T03:24:04.468Z,100
2022-07-29T03:25:03.538Z,100
2022-07-29T03:26:10.225Z,100
2022-07-29T03:27:07.100Z,100
2022-07-29T03:28:08.741Z,100
2022-07-29T03:29:10.699Z,100
2022-07-29T03:30:12.212Z,100
2022-07-29T03:31:19.094Z,100
2022-07-29T03:32:15.753Z,100
2022-07-29T03:33:17.331Z,100
2022-07-29T03:34:19.251Z,100
2022-07-29T03:35:20.846Z,100
2022-07-29T03:36:22.602Z,100
2022-07-29T03:37:24.373Z,100
2022-07-29T03:38:26.101Z,100
2022-07-29T03:39:27.621Z,100
2022-07-29T03:40:29.456Z,100
2022-07-29T03:41:31.239Z,100
2022-07-29T03:42:34.335Z,100
2022-07-29T03:43:34.717Z,100
2022-07-29T03:44:36.440Z,100
2022-07-29T03:45:38.227Z,100
2022-07-29T03:46:40.339Z,100
2022-07-29T03:47:50.476Z,100
2022-07-29T03:48:43.531Z,100
2022-07-29T03:49:45.023Z,100
2022-07-29T03:50:46.763Z,100
2022-07-29T03:51:48.361Z,100
2022-07-29T03:52:50.445Z,100
2022-07-29T03:53:52.089Z,100
2022-07-29T03:54:53.828Z,100
2022-07-29T03:55:55.589Z,100
2022-07-29T03:56:57.317Z,100
2022-07-29T03:57:59.091Z,100
2022-07-29T03:59:00.795Z,100
2022-07-29T04:00:02.624Z,100
2022-07-29T04:01:04.103Z,100
2022-07-29T04:02:06.140Z,100
2022-07-29T04:03:10.661Z,100
2022-07-29T04:04:09.749Z,100
2022-07-29T04:05:11.195Z,100
2022-07-29T04:06:17.861Z,100
2022-07-29T04:07:14.671Z,100
2022-07-29T04:08:16.285Z,100
2022-07-29T04:09:18.156Z,100
2022-07-29T04:10:29.377Z,100
2022-07-29T04:11:21.619Z,100
2022-07-29T04:12:23.354Z,100
2022-07-29T04:13:25.082Z,100
2022-07-29T04:14:26.622Z,100
2022-07-29T04:15:31.358Z,100
2022-07-29T04:16:30.273Z,100
2022-07-29T04:17:31.998Z,100
2022-07-29T04:18:33.675Z,100
2022-07-29T04:19:35.392Z,100
2022-07-29T04:20:37.083Z,100
2022-07-29T04:21:39.081Z,100
2022-07-29T04:22:40.922Z,100
2022-07-29T04:23:53.138Z,100
2022-07-29T04:24:44.440Z,100
2022-07-29T04:25:45.794Z,100
2022-07-29T04:26:47.565Z,100
2022-07-29T04:27:49.278Z,100
2022-07-29T04:28:50.881Z,100
2022-07-29T04:29:56.711Z,100
2022-07-29T04:30:54.623Z,100
2022-07-29T04:31:56.258Z,100
2022-07-29T04:32:57.912Z,100
2022-07-29T04:34:00.024Z,100
2022-07-29T04:35:01.480Z,100
2022-07-29T04:36:03.118Z,100
2022-07-29T04:37:04.986Z,100
2022-07-29T04:38:06.732Z,100
2022-07-29T04:39:08.367Z,100
2022-07-29T04:40:10.237Z,100
2022-07-29T04:41:16.888Z,100
2022-07-29T04:42:13.647Z,100
2022-07-29T04:43:15.583Z,100
2022-07-29T04:44:17.420Z,100
2022-07-29T04:45:22.273Z,100
2022-07-29T04:46:25.610Z,100
2022-07-29T04:47:22.093Z,100
2022-07-29T04:48:28.548Z,100
2022-07-29T04:49:25.858Z,100
2022-07-29T04:50:27.540Z,100
2022-07-29T04:51:29.085Z,100
2022-07-29T04:52:30.937Z,100
2022-07-29T04:53:32.623Z,100
2022-07-29T04:54:34.385Z,100
2022-07-29T04:55:36.309Z,100
2022-07-29T04:56:37.906Z,100
2022-07-29T04:57:40.199Z,100
2022-07-29T04:58:41.383Z,100
2022-07-29T04:59:43.025Z,100
2022-07-29T05:00:44.854Z,100
2022-07-29T05:01:46.541Z,100
2022-07-29T05:02:48.317Z,100
2022-07-29T05:03:49.995Z,100
2022-07-29T05:04:51.692Z,100
2022-07-29T05:05:53.496Z,100
2022-07-29T05:06:55.240Z,100
2022-07-29T05:07:56.961Z,100
2022-07-29T05:08:58.635Z,100
2022-07-29T05:10:00.393Z,98.75
2022-07-29T05:11:12.417Z,98.51
2022-07-29T05:12:03.760Z,99.52
2022-07-29T05:13:05.496Z,97.31
2022-07-29T05:14:07.376Z,98.25
2022-07-29T05:15:09.168Z,98.75
2022-07-29T05:16:25.986Z,98.39
2022-07-29T05:17:12.503Z,97.58
2022-07-29T05:18:14.300Z,97.42
2022-07-29T05:19:15.971Z,98.06
2022-07-29T05:20:17.658Z,98.31
2022-07-29T05:21:19.480Z,97.62
2022-07-29T05:22:21.342Z,98.39
2022-07-29T05:23:22.939Z,100
2022-07-29T05:24:24.697Z,98.35
2022-07-29T05:25:43.934Z,98.59
2022-07-29T05:26:28.158Z,97.8
2022-07-29T05:27:30.284Z,97.04
2022-07-29T05:28:31.642Z,97.81
2022-07-29T05:29:44.008Z,96.39
2022-07-29T05:30:35.221Z,96.76
2022-07-29T05:31:36.701Z,98.02
2022-07-29T05:32:38.690Z,98.11
2022-07-29T05:33:40.696Z,98.97
2022-07-29T05:34:50.722Z,98.46
2022-07-29T05:35:43.855Z,97.5
2022-07-29T05:36:45.513Z,97.29
2022-07-29T05:37:47.178Z,97.13
2022-07-29T05:38:48.839Z,95.06
2022-07-29T05:39:57.228Z,94.02
2022-07-29T05:40:52.457Z,93.66
2022-07-29T05:41:54.105Z,95.03
2022-07-29T05:42:55.912Z,94.52
2022-07-29T05:43:57.458Z,93.87
2022-07-29T05:44:59.386Z,93.44
2022-07-29T05:46:01.381Z,94.5
2022-07-29T05:47:02.882Z,95.07
2022-07-29T05:48:04.491Z,94.97
2022-07-29T05:49:06.278Z,96.02
2022-07-29T05:50:08.044Z,96.05
2022-07-29T05:51:24.603Z,95.94
2022-07-29T05:52:11.512Z,95.9
2022-07-29T05:53:18.843Z,96.59
2022-07-29T05:54:15.232Z,94.14
2022-07-29T05:55:16.518Z,93.33
2022-07-29T05:56:28.372Z,93.74
2022-07-29T05:57:20.074Z,93.21
2022-07-29T05:58:21.950Z,90.92
2022-07-29T05:59:28.326Z,92.79
2022-07-29T06:00:25.359Z,91.84
2022-07-29T06:01:32.217Z,93.81
2022-07-29T06:02:28.818Z,91.68
2022-07-29T06:03:30.620Z,89.74
2022-07-29T06:04:32.198Z,91.13
2022-07-29T06:05:33.934Z,91.46
2022-07-29T06:06:35.662Z,91.94
2022-07-29T06:07:37.608Z,89.63
2022-07-29T06:08:39.115Z,90.62
2022-07-29T06:09:40.926Z,89.76
2022-07-29T06:10:42.649Z,90.9
2022-07-29T06:11:44.308Z,91.05
2022-07-29T06:12:46.068Z,87.69
2022-07-29T06:13:47.841Z,86.7
2022-07-29T06:14:53.927Z,86.69
2022-07-29T06:15:51.394Z,81.79
2022-07-29T06:16:53.138Z,81.03
2022-07-29T06:17:59.335Z,80.97
2022-07-29T06:18:56.512Z,80.16
2022-07-29T06:19:58.245Z,77.62
2022-07-29T06:20:59.932Z,75.1
2022-07-29T06:22:01.771Z,77.47
2022-07-29T06:23:03.416Z,75.92
2022-07-29T06:24:05.020Z,77.44
2022-07-29T06:25:06.925Z,76.66
2022-07-29T06:27:10.733Z,73.82
2022-07-29T06:28:12.103Z,76.63
2022-07-29T06:29:13.695Z,77
2022-07-29T06:30:15.572Z,73.41
2022-07-29T06:31:32.257Z,75.09
2022-07-29T06:48:25.394Z,67.19
2022-07-29T06:49:37.205Z,67.89
2022-07-29T06:50:39.088Z,66.71
2022-07-29T06:51:40.268Z,65.65
2022-07-29T06:52:40.642Z,68.06
2022-07-29T06:56:05.083Z,66.15
2022-07-29T06:57:06.797Z,64.2
2022-07-29T06:58:08.456Z,63.22
2022-07-29T06:59:10.226Z,63.11
2022-07-29T07:00:11.944Z,63.66
2022-07-29T07:02:15.498Z,62.93
2022-07-29T07:03:17.150Z,64.06
2022-07-29T07:04:19.576Z,64.16
2022-07-29T07:05:20.661Z,62.38
2022-07-29T07:06:22.352Z,62.7
2022-07-29T07:07:24.204Z,62.65
2022-07-29T07:08:25.883Z,62.7
2022-07-29T07:09:40.001Z,63.33
2022-07-29T07:10:29.278Z,63.96
2022-07-29T07:11:31.020Z,64.25
2022-07-29T07:13:08.234Z,59.34
2022-07-29T07:14:10.686Z,61.1
2022-07-29T07:15:12.467Z,61.83
2022-07-29T07:16:45.796Z,59.98
2022-07-29T07:17:16.058Z,62.08
2022-07-29T07:18:17.787Z,60.94
2022-07-29T07:19:19.415Z,59.88
2022-07-29T07:20:21.273Z,61.06
2022-07-29T07:21:38.289Z,59.73
2022-07-29T07:22:24.597Z,61.04
2022-07-29T07:23:26.507Z,57.91
2022-07-29T07:24:28.205Z,58.77
2022-07-29T07:25:29.795Z,56.81
2022-07-29T07:26:31.544Z,56.8
2022-07-29T07:27:33.267Z,54.75
2022-07-29T07:28:35.008Z,57.56
2022-07-29T07:29:36.755Z,58.3
2022-07-29T07:30:38.475Z,59.14
2022-07-29T07:31:40.335Z,57.28
2022-07-29T07:32:42.002Z,58.61
2022-07-29T07:33:43.695Z,57.1
2022-07-29T07:34:45.430Z,55.74
2022-07-29T07:35:47.313Z,53.51
2022-07-29T07:36:48.893Z,53.91
2022-07-29T07:37:50.635Z,54.2
2022-07-29T07:38:52.405Z,56.78
2022-07-29T07:39:54.096Z,56.21
2022-07-29T07:40:55.851Z,56.14
2022-07-29T07:41:57.705Z,56.58
2022-07-29T07:42:59.304Z,56.07
2022-07-29T07:44:01.020Z,56.55
2022-07-29T07:45:13.531Z,53.45
2022-07-29T07:46:04.509Z,55.81
2022-07-29T07:47:08.724Z,57.26
2022-07-29T07:48:08.022Z,56.2
2022-07-29T07:49:09.911Z,52.62
2022-07-29T07:50:15.135Z,54.24
2022-07-29T07:51:28.743Z,53.44
2022-07-29T07:52:14.924Z,53.99
2022-07-29T07:53:16.701Z,54.46
2022-07-29T07:54:20.730Z,53.49
2022-07-29T07:55:20.251Z,52.76
2022-07-29T07:56:34.797Z,54.1
2022-07-29T07:57:26.118Z,54.96
2022-07-29T07:58:30.620Z,54.8
2022-07-29T07:59:32.241Z,54.26
2022-07-29T08:00:34.294Z,52.78
2022-07-29T08:01:48.137Z,53.57
2022-07-29T08:02:37.414Z,54.13
2022-07-29T08:03:39.104Z,51.57
2022-07-29T08:04:41.353Z,49.03
2022-07-29T08:05:42.982Z,51.81
2022-07-29T08:06:44.450Z,53.12
2022-07-29T08:07:46.052Z,53.11
2022-07-29T08:08:47.761Z,52.67
2022-07-29T08:09:49.706Z,53.89
2022-07-29T08:10:51.370Z,53.72
2022-07-29T08:11:53.132Z,53.82
2022-07-29T08:12:54.856Z,54.81
2022-07-29T08:13:56.578Z,55.03
2022-07-29T08:14:58.180Z,54.47
2022-07-29T08:16:00.158Z,51.74
2022-07-29T08:17:01.966Z,52.38
2022-07-29T08:18:08.497Z,50.71
2022-07-29T08:19:05.247Z,52.72
2022-07-29T08:20:08.491Z,51.36
2022-07-29T08:21:24.078Z,51.96
2022-07-29T08:22:10.387Z,51.58
2022-07-29T08:23:12.244Z,51.32
2022-07-29T08:24:13.971Z,51.25
2022-07-29T08:25:16.953Z,52.43
2022-07-29T08:26:22.405Z,51.82
2022-07-29T08:27:41.928Z,51.65
2022-07-29T08:28:21.016Z,52.42
2022-07-29T08:29:22.788Z,51.36
2022-07-29T08:30:24.265Z,51.75
2022-07-29T08:31:29.173Z,52.03
2022-07-29T08:32:52.682Z,51.41
2022-07-29T08:33:32.658Z,51.36
2022-07-29T08:34:34.472Z,50.52
2022-07-29T08:35:36.488Z,50.68
2022-07-29T08:36:37.853Z,51.64
2022-07-29T08:37:40.028Z,52.12
2022-07-29T08:38:41.765Z,53.18
2022-07-29T08:39:43.381Z,53.5
2022-07-29T08:40:45.152Z,51.45
2022-07-29T08:41:57.295Z,51.8
2022-07-29T08:42:48.777Z,53.09
2022-07-29T08:43:52.940Z,53.1
2022-07-29T08:44:54.788Z,51.57
2022-07-29T08:45:56.558Z,52.37
2022-07-29T08:46:58.282Z,54.27
2022-07-29T08:48:00.091Z,54.17
2022-07-29T08:49:01.704Z,53.73
2022-07-29T08:50:03.684Z,54.05
2022-07-29T08:51:06.389Z,53.55
2022-07-29T08:52:06.916Z,52.81
2022-07-29T08:53:08.685Z,51.99
2022-07-29T08:54:10.452Z,51.01
2022-07-29T08:55:12.212Z,51.36
2022-07-29T08:56:18.676Z,50.3
2022-07-29T08:57:15.458Z,51.11
2022-07-29T08:58:17.383Z,51.8
2022-07-29T08:59:19.072Z,51.87
2022-07-29T09:00:22.509Z,52.1
2022-07-29T09:01:35.740Z,54.06
2022-07-29T09:02:24.483Z,53.98
2022-07-29T09:03:27.557Z,53.78
2022-07-29T09:04:27.822Z,54.32
2022-07-29T09:05:29.801Z,53.8
2022-07-29T09:06:31.905Z,50.71
2022-07-29T09:07:34.567Z,52.48
2022-07-29T09:08:34.722Z,53.45
2022-07-29T09:09:36.301Z,50.05
2022-07-29T09:10:38.241Z,50.67
2022-07-29T09:11:39.857Z,51.72
2022-07-29T09:12:41.916Z,51.81
2022-07-29T09:13:43.543Z,51.28
2022-07-29T09:14:45.053Z,50.7
2022-07-29T09:15:46.879Z,50.73
2022-07-29T09:16:52.631Z,51.03
2022-07-29T09:17:50.698Z,49.72
2022-07-29T09:18:52.062Z,49.61
2022-07-29T09:19:53.756Z,50.18
2022-07-29T09:20:55.605Z,49.8
2022-07-29T09:21:57.259Z,50.02
2022-07-29T09:22:59.082Z,49.55
2022-07-29T09:24:00.771Z,48.23
2022-07-29T09:25:02.410Z,47.83
2022-07-29T09:26:04.297Z,50.37
2022-07-29T09:27:06.002Z,51.7
2022-07-29T09:28:07.704Z,52.16
2022-07-29T09:29:09.443Z,51.12
2022-07-29T09:30:11.434Z,52.59
2022-07-29T09:31:20.226Z,51.76
2022-07-29T09:32:19.452Z,51.62
2022-07-29T09:33:22.089Z,51.93
2022-07-29T09:34:23.248Z,51.87
2022-07-29T09:35:24.889Z,51.21
2022-07-29T09:36:31.716Z,51.75
2022-07-29T09:37:28.154Z,51.67
2022-07-29T09:38:29.896Z,53
2022-07-29T09:39:31.640Z,52.52
2022-07-29T09:40:33.504Z,51.59
2022-07-29T09:41:35.113Z,51.22
2022-07-29T09:42:36.824Z,50.91
2022-07-29T09:43:38.575Z,51.82
2022-07-29T09:44:40.302Z,50.87
2022-07-29T09:45:42.050Z,51.13
2022-07-29T09:46:43.796Z,51.92
2022-07-29T09:47:45.622Z,52.63
2022-07-29T09:48:47.361Z,51.51
2022-07-29T09:49:49.047Z,51.21
2022-07-29T09:50:50.712Z,51.88
2022-07-29T09:51:52.449Z,50.67
2022-07-29T09:52:54.354Z,51.08
2022-07-29T09:53:55.920Z,51.47
2022-07-29T09:54:57.643Z,51.27
2022-07-29T09:55:59.380Z,50.68
2022-07-29T09:57:01.123Z,50.58
2022-07-29T09:58:03.041Z,50.51
2022-07-29T09:59:04.591Z,50.59
2022-07-29T10:00:06.325Z,51.45
2022-07-29T10:01:08.144Z,51.26
2022-07-29T10:02:09.826Z,52.69
2022-07-29T10:03:11.643Z,51.17
2022-07-29T10:04:13.307Z,50.49
2022-07-29T10:05:15.035Z,51.42
2022-07-29T10:06:23.986Z,52.15
2022-07-29T10:07:18.475Z,51.67
2022-07-29T10:08:20.391Z,50.42
2022-07-29T10:09:24.792Z,51.07
2022-07-29T10:10:28.862Z,51.56
2022-07-29T10:11:48.189Z,51.24
2022-07-29T10:12:32.406Z,51.75
2022-07-29T10:13:34.062Z,51.26
2022-07-29T10:14:35.860Z,51.38
2022-07-29T10:15:37.650Z,51.46
2022-07-29T10:16:39.570Z,50.62
2022-07-29T10:17:41.867Z,49.83
2022-07-29T10:18:42.753Z,49.26
2022-07-29T10:19:44.471Z,50.94
2022-07-29T10:20:46.222Z,51.45
2022-07-29T10:21:47.949Z,50.54
2022-07-29T10:22:53.531Z,49.21
2022-07-29T10:23:51.467Z,51.96
2022-07-29T10:24:53.213Z,50.86
2022-07-29T10:25:54.926Z,51.61
2022-07-29T10:26:56.749Z,50.57
2022-07-29T10:27:58.352Z,51.79
2022-07-29T10:29:00.135Z,52.91
2022-07-29T10:30:01.891Z,53.02
2022-07-29T10:31:03.645Z,52.4
2022-07-29T10:32:05.339Z,52.24
2022-07-29T10:33:07.094Z,52.56
2022-07-29T10:34:08.768Z,52.72
2022-07-29T10:35:10.533Z,51.22
2022-07-29T10:36:19.305Z,50.29
2022-07-29T10:37:13.969Z,50.32
2022-07-29T10:38:17.368Z,50.92
2022-07-29T10:39:17.521Z,51.07
2022-07-29T10:40:19.194Z,51
2022-07-29T10:41:20.988Z,49.64
2022-07-29T10:42:33.352Z,50.88
2022-07-29T10:43:24.412Z,49.28
2022-07-29T10:44:26.173Z,50.11
2022-07-29T10:45:27.858Z,49.84
2022-07-29T10:46:32.793Z,49.27
2022-07-29T10:47:31.477Z,48.85
2022-07-29T10:48:33.154Z,45.83
2022-07-29T10:49:34.861Z,47.2
2022-07-29T10:50:36.531Z,46.55
2022-07-29T10:51:38.327Z,47.61
2022-07-29T10:52:40.010Z,47.46
2022-07-29T10:53:41.774Z,47.54
2022-07-29T10:54:43.753Z,48.56
2022-07-29T10:55:45.216Z,49.09
2022-07-29T10:56:46.784Z,48.13
2022-07-29T10:57:53.165Z,46.39
2022-07-29T10:58:52.832Z,45.47
2022-07-29T10:59:53.053Z,45.06
2022-07-29T11:00:53.981Z,44.92
2022-07-29T11:02:06.359Z,45.72
2022-07-29T11:02:57.674Z,46.01
2022-07-29T11:03:59.260Z,45.73
2022-07-29T11:05:01.167Z,46.14
2022-07-29T11:06:18.010Z,46.45
2022-07-29T11:07:04.593Z,47.1
2022-07-29T11:08:06.329Z,47.47
2022-07-29T11:09:07.816Z,45.44
2022-07-29T11:10:09.767Z,46.04
2022-07-29T11:11:18.251Z,45.13
2022-07-29T11:12:12.943Z,45.3
2022-07-29T11:13:14.685Z,46.54
2022-07-29T11:14:16.375Z,45.08
2022-07-29T11:15:18.160Z,44.93
2022-07-29T11:16:22.998Z,45.64
2022-07-29T11:17:21.795Z,47.37
2022-07-29T11:18:23.759Z,47.08
2022-07-29T11:19:26.591Z,44.13
2022-07-29T11:20:26.910Z,44.41
2022-07-29T11:21:28.580Z,45.31
2022-07-29T11:22:30.347Z,44.48
2022-07-29T11:23:33.815Z,44.84
2022-07-29T11:24:34.886Z,43.46
2022-07-29T11:25:43.053Z,45.03
2022-07-29T11:26:37.318Z,42.69
2022-07-29T11:27:39.147Z,42.82
2022-07-29T11:28:40.690Z,43.36
2022-07-29T11:29:43.119Z,42.2
2022-07-29T11:30:44.427Z,42.28
2022-07-29T11:31:46.387Z,43.5
2022-07-29T11:32:48.688Z,41.86
2022-07-29T11:33:56.371Z,43.24
2022-07-29T11:34:51.184Z,44.18
2022-07-29T11:36:00.549Z,43.59
2022-07-29T11:36:54.856Z,43.19
2022-07-29T11:37:57.794Z,43.83
2022-07-29T11:38:58.069Z,43.24
2022-07-29T11:40:02.027Z,41.97
2022-07-29T11:41:01.397Z,42.96
2022-07-29T11:42:13.532Z,42.12
2022-07-29T11:43:07.178Z,43.51
2022-07-29T11:44:06.712Z,44.49
2022-07-29T11:45:33.411Z,44.88
2022-07-29T11:46:25.645Z,44.76
2022-07-29T11:47:12.167Z,45.98
2022-07-29T11:48:29.937Z,45.49
2022-07-29T11:49:15.518Z,45.27
2022-07-29T11:50:17.114Z,45.7
2022-07-29T11:51:34.129Z,44.3
2022-07-29T11:52:20.557Z,45.33
2022-07-29T11:53:22.353Z,44.46
2022-07-29T11:54:27.449Z,45.36
2022-07-29T11:55:32.543Z,44.26
2022-07-29T11:56:27.560Z,45.92
2022-07-29T11:57:36.606Z,45.27
2022-07-29T11:58:30.834Z,45.57
2022-07-29T11:59:32.932Z,45.8
2022-07-29T12:00:34.952Z,45.9
2022-07-29T12:01:36.534Z,45.7
2022-07-29T12:02:38.411Z,44.71
2022-07-29T12:03:40.225Z,44.37
2022-07-29T12:04:43.621Z,45.76
2022-07-29T12:06:48.707Z,45.6
2022-07-29T12:07:47.199Z,46.11
2022-07-29T12:08:48.358Z,46.2
2022-07-29T12:09:50.036Z,44.14
2022-07-29T12:10:51.879Z,43.27
2022-07-29T12:11:53.577Z,42.73
2022-07-29T12:12:55.579Z,43.92
2022-07-29T12:13:57.092Z,42.28
2022-07-29T12:14:58.761Z,43.16
2022-07-29T12:16:00.554Z,43.33
2022-07-29T12:17:02.426Z,43.85
2022-07-29T12:18:04.126Z,44.35
2022-07-29T12:19:05.685Z,43.79
2022-07-29T12:20:07.448Z,42.89
2022-07-29T12:21:16.402Z,42.51
2022-07-29T12:22:11.044Z,41.76
2022-07-29T12:23:12.653Z,41.45
2022-07-29T12:24:14.774Z,42.05
2022-07-29T12:25:32.801Z,44.47
2022-07-29T12:26:21.917Z,43.98
2022-07-29T12:27:19.614Z,42.2
2022-07-29T12:28:27.655Z,43.04
2022-07-29T12:29:35.516Z,43.38
2022-07-29T12:30:25.252Z,44.5
2022-07-29T12:31:42.202Z,44.85
2022-07-29T12:32:28.552Z,45.03
2022-07-29T12:33:29.997Z,44.65
2022-07-29T12:34:31.603Z,44.6
2022-07-29T12:35:33.538Z,43.66
2022-07-29T12:36:35.129Z,43.46
2022-07-29T12:37:41.099Z,44.24
2022-07-29T12:38:38.603Z,43.61
2022-07-29T12:39:40.464Z,43.59
2022-07-29T12:40:42.156Z,42.77
2022-07-29T12:41:44.157Z,43.24
2022-07-29T12:42:45.534Z,41.51
2022-07-29T12:43:47.393Z,41.18
2022-07-29T12:44:49.102Z,41.8
2022-07-29T12:45:50.926Z,41.58
2022-07-29T12:46:52.705Z,41.44
2022-07-29T12:47:54.162Z,42.62
2022-07-29T12:48:56.070Z,42.05
2022-07-29T12:49:57.705Z,42.03
2022-07-29T12:50:59.468Z,42.22
2022-07-29T12:52:01.286Z,43.85
2022-07-29T12:53:03.162Z,42.23
2022-07-29T12:54:04.601Z,43.2
2022-07-29T12:55:06.345Z,42.49
2022-07-29T12:56:42.155Z,41.48
2022-07-29T12:57:09.878Z,41.13
2022-07-29T12:58:11.625Z,41.06
2022-07-29T12:59:14.990Z,41.51
2022-07-29T13:00:15.579Z,41.29
2022-07-29T13:01:17.750Z,41.6
2022-07-29T13:02:18.847Z,41.59
2022-07-29T13:03:20.635Z,42.25
2022-07-29T13:04:22.638Z,41.62
2022-07-29T13:05:24.055Z,40.52
2022-07-29T13:06:30.834Z,39.22
2022-07-29T13:07:54.376Z,41.05
2022-07-29T13:08:28.773Z,41.72
2022-07-29T13:09:30.775Z,41.58
2022-07-29T13:10:32.858Z,40.97
2022-07-29T13:11:34.333Z,40.86
2022-07-29T13:12:36.066Z,40.09
2022-07-29T13:13:37.752Z,41.25
2022-07-29T13:14:39.357Z,39.53
2022-07-29T13:15:41.155Z,39.83
2022-07-29T13:16:43.164Z,39.61
2022-07-29T13:17:44.605Z,39.28
2022-07-29T13:18:46.251Z,39.97
2022-07-29T13:19:48.066Z,40.23
2022-07-29T13:20:49.852Z,39.45
2022-07-29T13:21:51.610Z,41
2022-07-29T13:22:53.464Z,39.23
2022-07-29T13:23:55.179Z,38.99
2022-07-29T13:24:56.745Z,39.19
2022-07-29T13:25:58.656Z,39.93
2022-07-29T13:27:00.425Z,39.96
2022-07-29T13:28:02.102Z,39.74
2022-07-29T13:29:03.736Z,38.17
2022-07-29T13:30:05.730Z,36.86
2022-07-29T13:31:07.505Z,37.12
2022-07-29T13:32:09.076Z,38.12
2022-07-29T13:33:11.329Z,37.65
2022-07-29T13:34:12.835Z,38.59
2022-07-29T13:35:14.116Z,39.2
2022-07-29T13:36:23.028Z,40.54
2022-07-29T13:37:17.659Z,39.65
2022-07-29T13:38:19.293Z,39.94
2022-07-29T13:39:21.016Z,40.72
2022-07-29T13:40:22.974Z,40.22
2022-07-29T13:41:24.483Z,40.52
2022-07-29T13:42:26.239Z,40.88
2022-07-29T13:43:27.967Z,41.94
2022-07-29T13:44:29.769Z,41.04
2022-07-29T13:45:31.429Z,42.24
2022-07-29T13:46:33.451Z,42.33
2022-07-29T13:47:34.828Z,41.96
2022-07-29T13:48:36.705Z,41.31
2022-07-29T13:49:38.277Z,41.24
2022-07-29T13:50:40.157Z,40.07
2022-07-29T13:51:41.927Z,40.08
2022-07-29T13:52:43.817Z,40.06
2022-07-29T13:53:45.400Z,42.25